Aviation Digital Data Service (ADDS)

Output produced by METARs form (0244 UTC 24 July 2017)
found at http://www.aviationweather.gov/adds/metars/
 
RJSK 240200Z 19003KT 150V240 9999 FEW015 BKN060 BKN070 25/20 Q1001
TAF RJSK 232308Z 2400/2506 14004KT 9999 FEW020 BKN040 
     BECMG 2403/2405 28005KT 
     BECMG 2415/2418 14004KT 
     BECMG 2500/2503 28007KT
       
RJKA 240200Z 04010KT 9999 FEW018 SCT/// 33/25 Q1005
RJSA 240200Z 29005KT 240V360 9999 FEW025 BKN100 BKN/// 26/20 Q1002
TAF RJSA 232306Z 2400/2506 26005KT 9999 FEW020 SCT040
       
RJEC 240200Z 02004KT 320V090 9999 FEW020 SCT030 BKN/// 24/19 Q1001
TAF RJEC 232308Z 2400/2506 30008KT 9999 FEW030 
     BECMG 2418/2421 17006KT
       
RJFF 240230Z 14009KT 9999 -SHRA FEW010 SCT035 BKN050 31/25 Q1003 RMK 1ST010 3CU035 5SC050 A2964
TAF RJFF 232307Z 2400/2506 15008KT 9999 FEW025 SCT040 
     BECMG 2401/2403 32008KT 
     TEMPO 2405/2411 -TSRA FEW010 SCT025 FEW030CB BKN035 
     BECMG 2410/2412 15007KT 
     BECMG 2500/2503 32010KT
       
RJSF 240226Z 17006KT 5000 -SHRA BR FEW003 SCT004 BKN040 24/24 Q1004 RMK 1ST003 3ST004 5CU040 A2966
TAF RJSF 232310Z 2400/2506 20007KT 8000 -SHRA FEW010 BKN020 BKN030 
     TEMPO 2400/2404 1500 SHRA BR FEW002 BKN005 BKN010 
     TEMPO 2404/2409 4000 -SHRA BR FEW005 BKN008 BKN015 
     TEMPO 2409/2415 2000 SHRA BR FEW005 BKN008 BKN015 
     BECMG 2418/2421 36005KT 3000 -SHRA BR FEW005 BKN008 BKN015
       
ROTM 240158Z 34011KT 9999 SCT030 SCT060 31/2 A2975 RMK SLP061 STNPR29450 T03120253
TAF ROTM 2321/2421 VRB06KT 9999 SCT020 BKN300 QNH2974INS 
     FM240300 34008KT 9999 SCT020 SCT180 BKN300 621809 QNH2968INS 
     BECMG 2416/2418 34008KT 6000 -SHRA BR SCT020 SCT060 BKN140 621809 QNH2967INS T32/2405Z T27/2420Z
       
RJNG 240213Z 24003KT 9999 -SHRA FEW015 SCT020 BKN035 29/24 Q1004 RMK 1CU015 3CU020 7CU035 A2966
RJCH 240200Z 18005KT 9999 FEW020 BKN120 BKN/// 22/18 Q1002
TAF RJCH 232314Z 2400/2506 21004KT 9999 FEW040 
     BECMG 2406/2408 16005KT 
     BECMG 2412/2415 01004KT 
     BECMG 2421/2500 23010KT
       
RJSI 240200Z 19004KT 9999 FEW015 SCT040 BKN070 25/21 Q1001
RJOA 240200Z 19005KT 150V230 9999 -SHRA FEW010 BKN015 27/24 Q1006
TAF RJOA 232306Z 2400/2506 21006KT 9999 FEW015 SCT020
       
RJAH 240207Z 21012KT 9999 FEW015 BKN020 BKN230 29/24 Q1002 RMK 1CU015 5CU020 A2960
TAF RJAH 232310Z 2400/2506 20012KT 9999 FEW015 SCT030 
     TEMPO 2412/2418 4000 -SHRA BR FEW005 BKN008 
     TEMPO 2418/2421 4000 -SHRA BR FEW003 BKN005 
     BECMG 2500/2503 07008KT 
     TEMPO 2503/2506 4000 BR FEW005 BKN008
       
ROIG 240200Z 09007KT 9999 SCT020 BKN/// 31/26 Q1007
TAF AMD ROIG 240227Z 2402/2506 10007KT 9999 FEW015 SCT030 
     TEMPO 2404/2407 SHRA 
     BECMG 2407/2409 30005KT
       
RJOI 240155Z 19007KT 9999 SCT023 OVC080 29/26 A2967 RMK SLP045 T02890256
TAF AMD RJOI 2400/2421 16008KT 9999 FEW020 BKN040 OVC180 621809 QNH2962INS 
     TEMPO 2401/2407 8000 -SHRA BR FEW015 BKN030 OVC180 
     FM240700 20007KT 9999 FEW030 BKN050 OVC180 621809 QNH2954INS 
     FM241400 32006KT 9999 FEW020 BKN045 BKN160 621709 QNH2954INS T32/2406Z T27/2419Z AMD 0005
       
RJOW 240200Z 14004KT 9999 FEW020 SCT030 BKN080 29/26 Q1004
RJAW 240200Z 22013KT 9999 -SHRA FEW010 BKN015 BKN080 27/24 Q1005 RMK 2CU010 5CU015 7AC080 A2970
RJOC 240200Z 25015KT 9999 FEW020 BKN040 BKN/// 31/24 Q1002
TAF RJOC 232307Z 2400/2506 25015KT 9999 FEW015 SCT025 BKN040 
     BECMG 2410/2412 18005KT 
     BECMG 2500/2503 25013KT
       
RODN 240236Z AUTO 31011KT 10SM BKN027 32/26 A2973 RMK AO2 BKN V SCT SLP072 $
TAF RODN 240000Z 2400/2506 32007KT 9999 SCT025 QNH2973INS 
     TEMPO 2408/2411 8000 -SHRA BKN020 
     TEMPO 2419/2501 8000 -SHRA FEW015 BKN025 TX33/2403Z TN27/2421Z
       
RJFK 240200Z 15006KT 110V180 9999 FEW010 SCT015 BKN020 29/25 Q1006 RMK 1CU010 3CU015 5CU020 A2972
TAF RJFK 232313Z 2400/2506 30005KT 9999 FEW020 SCT030 BKN040 
     TEMPO 2403/2409 FEW015 SCT020 FEW025CB BKN030 
     BECMG 2500/2503 14004KT
       
RJBB 240230Z 25009KT 9999 FEW025 BKN/// 32/25 Q1004 NOSIG
TAF RJBB 232306Z 2400/2506 23012KT 9999 FEW025 BKN045
       
RJTK 240143Z 20027G37KT 9999 FEW015 SCT180 BKN230 29/25 Q1002 RMK 1CU015 3AC180 7CI230 A2961
RJFR 240200Z 12003KT 040V170 9999 FEW015 BKN035 BKN060 29/24 Q1004
TAF RJFR 232310Z 2400/2506 10005KT 9999 FEW020 SCT045 
     TEMPO 2406/2412 4000 -TSRA BR FEW015 SCT025 BKN030 FEW035CB
       
RJOK 240200Z 19010KT 9999 FEW020 BKN/// 30/24 Q1004
TAF RJOK 232306Z 2400/2506 19005KT 9999 FEW025 SCT050 
     BECMG 2412/2415 35005KT 
     BECMG 2500/2503 19005KT
       
RJNK 240200Z 20007KT 9999 FEW030 BKN050 BKN080 30/22 Q1002
TAF RJNK 232307Z 2400/2506 22014KT 8000 FEW010 BKN020 
     TEMPO 2406/2415 3000 SHRA BR FEW003 BKN005 
     BECMG 2409/2411 03004KT 
     BECMG 2415/2418 20010KT 
     TEMPO 2421/2506 3000 SHRA BR FEW005 BKN008 
     BECMG 2503/2506 34012KT
       
RJFT 240200Z 25003KT 130V310 9999 FEW015 BKN020 BKN/// 30/25 Q1006
TAF RJFT 232312Z 2400/2506 22005KT 9999 -SHRA FEW020 BKN030 
     BECMG 2410/2412 07005KT 
     BECMG 2421/2500 24003KT
       
RJCK 240200Z 23005KT 180V270 9999 FEW004 SCT006 BKN012 22/20 Q1001
TAF AMD RJCK 240050Z 2400/2506 18010KT 9999 FEW003 BKN005 
     TEMPO 2400/2407 3000 BR 
     TEMPO 2407/2410 0700 FG VV001 
     BECMG 2410/2412 01006KT 
     TEMPO 2410/2421 0500 FG VV001 
     BECMG 2421/2500 19012KT FEW015
       
RJAF 240200Z 19017KT 9999 VCSH FEW035 SCT150 BKN/// 30/21 Q1005
RJOM 240200Z 28006KT 9999 FEW030 SCT050 BKN/// 29/24 Q1004
TAF RJOM 232306Z 2400/2506 23006KT 9999 FEW025 SCT060 
     BECMG 2409/2411 12004KT 
     BECMG 2500/2503 23006KT
       
RJCM 240200Z VRB02KT 9999 SCT010 BKN/// 22/18 Q1001
TAF RJCM 232316Z 2400/2506 24005KT 9999 FEW005 BKN008 
     BECMG 2400/2402 03006KT FEW005 BKN015 
     BECMG 2412/2415 19003KT 
     BECMG 2500/2503 03008KT
       
RJOH 240200Z 25014KT 9999 FEW025 BKN220 32/22 Q1002
TAF RJOH 232307Z 2400/2506 26014KT 9999 FEW020 BKN030 
     BECMG 2410/2412 18005KT 
     BECMG 2500/2503 26010KT
       
ROMY 240200Z 30006KT 240V360 9999 FEW024 33/25 Q1007
RJFM 240200Z 13006KT 9999 FEW020 SCT/// 31/25 Q1004
TAF RJFM 232305Z 2400/2506 12010KT 9999 FEW025 
     BECMG 2412/2415 28005KT 
     BECMG 2500/2503 12005KT
       
RJEB 240200Z 04004KT 350V090 8000 FEW002 BKN004 17/16 Q1001
RJFU 240200Z VRB02KT 9999 VCSH FEW007 SCT010 BKN020 29/27 Q1004
TAF AMD RJFU 240024Z 2400/2506 15008KT 8000 -SHRA FEW015 SCT035 BKN040 
     TEMPO 2400/2402 4000 TSRA BR FEW015 FEW025CB SCT035 BKN040
       
ROAH 240230Z 34010KT 9999 FEW025 31/25 Q1006 RMK 1CU025 A2972
TAF ROAH 232305Z 2400/2506 34010KT 9999 FEW020 SCT030 
     TEMPO 2503/2506 4000 SHRA FEW015 FEW020CB BKN025
       
RJCN 240200Z VRB01KT 9999 FEW006 SCT007 BKN013 22/19 Q1001
RJBD 240200Z 16006KT 120V290 9999 FEW025 29/24 Q1005
RJCC 240230Z 03003KT 330V090 9999 FEW020 BKN/// 25/18 Q1001
TAF RJCC 232305Z 2400/2506 34007KT 9999 FEW030 
     BECMG 2401/2403 17008KT 
     BECMG 2407/2409 36005KT 
     BECMG 2418/2421 17010KT
       
RJAA 240230Z 20011KT 160V240 9999 FEW025 SCT150 BKN/// 31/24 Q1002 NOSIG
TAF RJAA 232305Z 2400/2506 21011KT 9999 FEW020 
     TEMPO 2415/2421 4000 -SHRA BR FEW003 BKN008
       
RJSN 240224Z 18008KT 3000 TSRA BR FEW010 SCT015CB BKN020 25/24 Q1001 RMK 2CU010 3CB015 7CU020 A2956 FBL TS 10KM W MOV E
TAF AMD RJSN 240203Z 2402/2506 18008KT 6000 FEW008 BKN015 
     TEMPO 2402/2406 2000 +TSRA BR FEW005 BKN008 FEW015CB 
     BECMG 2403/2405 28008KT 
     BECMG 2412/2415 16004KT 
     TEMPO 2503/2506 3000 SHRA BR FEW005 BKN008
       
RJCB 240200Z VRB04KT 9999 SCT020 BKN/// 25/20 Q1001
TAF RJCB 232306Z 2400/2506 15007KT 9999 FEW040 
     TEMPO 2412/2421 1500 BR 
     BECMG 2415/2418 33006KT 
     BECMG 2421/2500 15006KT
       
RJSR 240200Z VRB02KT 9999 FEW015 SCT030 BKN/// 27/19 Q1001
RJFO 240200Z 15006KT 9999 FEW020 BKN/// 27/25 Q1004
TAF RJFO 232306Z 2400/2506 15005KT 9999 FEW020 SCT045 
     TEMPO 2406/2412 TS FEW020 FEW035CB SCT040
       
RJOB 240200Z 20007KT 170V250 9999 FEW015 BKN030 BKN/// 29/25 Q1004
TAF RJOB 232308Z 2400/2506 22006KT 9000 FEW010 SCT045
       
RJOO 240200Z 23009KT 200V260 9999 FEW015 BKN025 BKN/// 30/22 Q1004 RMK 1CU015 5CU025 A2966
TAF RJOO 232307Z 2400/2506 24007KT 9999 FEW020 BKN045 
     BECMG 2400/2402 22009KT 
     BECMG 2407/2409 25007KT 
     BECMG 2500/2503 22008KT
       
RJTO 240200Z 21016KT 9999 FEW008 BKN/// 28/25 Q1004
RJOZ 232125Z 04004KT 330V120 9999 FEW010 BKN020 28/25 Q1005 RMK 2CU010 7CU020 A2969
RJFS 240200Z 17008KT 9999 FEW015 SCT045 BKN/// 30/27 Q1004
TAF RJFS 232309Z 2400/2506 17010KT 9999 -SHRA FEW020 BKN035 
     TEMPO 2406/2409 -TSRA FEW020 FEW025CB BKN035
       
RJSS 240230Z VRB02KT 3000 +SHRA BR FEW001 BKN004 22/21 Q1002 RMK 1ST001 7ST004 A2959
TAF AMD RJSS 240233Z 2402/2506 15005KT 6000 -SHRA FEW005 BKN015 BKN030 
     TEMPO 2402/2406 2000 SHRA BR FEW003 BKN005 BKN008 
     TEMPO 2406/2409 4000 -SHRA BR FEW005 BKN008 BKN015 
     TEMPO 2409/2415 FEW003 BKN005 BKN008
       
RORS 240200Z 31005KT 9999 FEW020 BKN/// 31/25 Q1007
RJSY 240200Z 06005KT 3000 R09/1400VP1800U SHRA BR FEW003 SCT005 BKN015 22/21 Q1001
RJBT 240200Z 18008KT 9999 FEW025 SCT035 BKN/// 31/23 Q1003
RJOT 240200Z 32008KT 280V340 9999 FEW030 SCT/// 32/26 Q1004
TAF RJOT 232306Z 2400/2506 30005KT 9999 FEW020 SCT030 
     BECMG 2407/2409 15004KT 
     BECMG 2500/2503 30005KT
       
RJFG 240200Z 30007KT 250V340 9999 FEW015 SCT/// 29/24 Q1006
RJOS 240030Z 10004KT 9999 FEW020 SCT045 BKN080 28/24 Q1005 RMK 1CU020 4SC045 7AC080 A2968
RJTT 240230Z 19022KT 9999 FEW025 BKN/// 31/24 Q1002 TEMPO 20024G34KT
TAF RJTT 232305Z 2400/2506 20020KT 9999 FEW020 
     TEMPO 2402/2408 20024G34KT
       
RJOR 240200Z 33006KT 9999 FEW030 BKN/// 32/23 Q1002
RJNT 240200Z VRB02KT 9999 FEW030 SCT060 BKN080 30/23 Q1002
TAF RJNT 232308Z 2400/2506 18006KT 8000 FEW020 BKN040 
     TEMPO 2406/2409 3000 SHRA BR 
     BECMG 2408/2410 36006KT 
     TEMPO 2409/2415 2000 SHRA BR FEW005 BKN008 
     TEMPO 2415/2500 2000 SHRA BR FEW003 BKN005 
     TEMPO 2500/2506 3000 -SHRA BR FEW005 BKN008
       
RJDT 240200Z VRB03KT 9999 FEW025 BKN/// 32/26 Q1003
RJTU 232342Z 13003KT 9000 FEW010 BKN025 BKN080 26/23 Q1004 RMK 1ST010 5SC025 6AC080 A2965
RJCW 240200Z 32007KT 9999 FEW005 SCT009 BKN012 20/17 Q1000
RJSC 240217Z VRB01KT 3000 SHRA BR FEW002 BKN006 BKN007 22/21 Q1002 RMK 1ST002 5ST006 7ST007 A2959
RJDC 240200Z 08006KT 9000 FEW005 SCT008 BKN010 28/26 Q1004
RJOY 240200Z 23008KT 160V270 9999 FEW025 SCT035 BKN/// 31/21 Q1004
RJTY 240158Z AUTO 00000KT 10SM CLR 31/23 A2960 RMK AO2 SLP018 T03130229
TAF RJTY 232100Z 2321/2503 VRB06KT 9999 SCT007 BKN100 QNH2958INS 
     BECMG 2402/2403 21009KT 9999 VCSH SCT040 BKN100 QNH2950INS 
     TEMPO 2403/2408 17012G18KT 
     BECMG 2408/2409 21009KT 9999 NSW SCT040 BKN100 QNH2955INS TX32/2403Z TN25/2419Z
       
ROYN 240200Z AUTO 30009KT 9999 NSC 32/26 Q1007
RORY 240200Z AUTO 34007KT 9999 FEW018 SCT023 BKN034 31/25 Q1006